sensor_id;sensor_type;location;lat;lon;timestamp;P1;durP1;ratioP1;P2;durP2;ratioP2
50555;SDS011;36508;52.512;13.450;2022-12-07T00:01:23;13.73;;;12.33;;
50555;SDS011;36508;52.512;13.450;2022-12-07T00:03:51;10.40;;;8.60;;
50555;SDS011;36508;52.512;13.450;2022-12-07T00:06:21;9.43;;;8.17;;
50555;SDS011;36508;52.512;13.450;2022-12-07T00:08:50;8.93;;;7.17;;
50555;SDS011;36508;52.512;13.450;2022-12-07T00:11:17;9.30;;;8.30;;
50555;SDS011;36508;52.512;13.450;2022-12-07T00:13:44;9.60;;;6.67;;
50555;SDS011;36508;52.512;13.450;2022-12-07T00:16:12;8.33;;;7.27;;
50555;SDS011;36508;52.512;13.450;2022-12-07T00:18:43;8.57;;;7.53;;
50555;SDS011;36508;52.512;13.450;2022-12-07T00:21:11;11.13;;;9.10;;
50555;SDS011;36508;52.512;13.450;2022-12-07T00:23:43;12.37;;;10.30;;
50555;SDS011;36508;52.512;13.450;2022-12-07T00:26:14;10.63;;;9.30;;
50555;SDS011;36508;52.512;13.450;2022-12-07T00:28:49;9.87;;;8.80;;
50555;SDS011;36508;52.512;13.450;2022-12-07T00:31:17;6.27;;;4.97;;
50555;SDS011;36508;52.512;13.450;2022-12-07T00:33:45;10.03;;;9.10;;
50555;SDS011;36508;52.512;13.450;2022-12-07T00:36:12;10.10;;;9.07;;
50555;SDS011;36508;52.512;13.450;2022-12-07T00:38:39;9.17;;;8.27;;
50555;SDS011;36508;52.512;13.450;2022-12-07T00:41:18;9.60;;;8.60;;
50555;SDS011;36508;52.512;13.450;2022-12-07T00:43:46;7.37;;;6.67;;
50555;SDS011;36508;52.512;13.450;2022-12-07T00:46:12;9.30;;;8.30;;
50555;SDS011;36508;52.512;13.450;2022-12-07T00:48:39;9.63;;;8.30;;
50555;SDS011;36508;52.512;13.450;2022-12-07T00:51:05;12.60;;;9.53;;
50555;SDS011;36508;52.512;13.450;2022-12-07T00:53:31;9.93;;;8.93;;
50555;SDS011;36508;52.512;13.450;2022-12-07T00:56:04;8.83;;;7.10;;
50555;SDS011;36508;52.512;13.450;2022-12-07T00:58:30;8.17;;;7.37;;
50555;SDS011;36508;52.512;13.450;2022-12-07T01:00:56;6.80;;;6.20;;
50555;SDS011;36508;52.512;13.450;2022-12-07T01:03:28;9.70;;;8.70;;
50555;SDS011;36508;52.512;13.450;2022-12-07T01:05:54;8.83;;;7.93;;
50555;SDS011;36508;52.512;13.450;2022-12-07T01:08:21;8.80;;;7.83;;
50555;SDS011;36508;52.512;13.450;2022-12-07T01:10:48;9.60;;;8.70;;
50555;SDS011;36508;52.512;13.450;2022-12-07T01:13:14;10.10;;;9.17;;
50555;SDS011;36508;52.512;13.450;2022-12-07T01:15:41;10.63;;;9.53;;
50555;SDS011;36508;52.512;13.450;2022-12-07T01:18:08;10.20;;;9.13;;
50555;SDS011;36508;52.512;13.450;2022-12-07T01:20:33;8.20;;;7.50;;
50555;SDS011;36508;52.512;13.450;2022-12-07T01:22:59;8.17;;;7.23;;
50555;SDS011;36508;52.512;13.450;2022-12-07T01:25:25;10.37;;;8.30;;
50555;SDS011;36508;52.512;13.450;2022-12-07T01:27:50;8.77;;;7.87;;
50555;SDS011;36508;52.512;13.450;2022-12-07T01:30:16;8.17;;;7.37;;
50555;SDS011;36508;52.512;13.450;2022-12-07T01:32:41;8.40;;;7.60;;
50555;SDS011;36508;52.512;13.450;2022-12-07T01:35:07;8.80;;;7.80;;
50555;SDS011;36508;52.512;13.450;2022-12-07T01:37:34;7.63;;;7.03;;
50555;SDS011;36508;52.512;13.450;2022-12-07T01:40:00;8.13;;;7.30;;
50555;SDS011;36508;52.512;13.450;2022-12-07T01:42:28;7.63;;;6.47;;
50555;SDS011;36508;52.512;13.450;2022-12-07T01:47:57;6.50;;;5.90;;
50555;SDS011;36508;52.512;13.450;2022-12-07T01:50:24;8.73;;;7.40;;
50555;SDS011;36508;52.512;13.450;2022-12-07T01:52:52;6.70;;;6.10;;
50555;SDS011;36508;52.512;13.450;2022-12-07T01:55:20;7.50;;;6.80;;
50555;SDS011;36508;52.512;13.450;2022-12-07T01:57:49;7.80;;;6.73;;
50555;SDS011;36508;52.512;13.450;2022-12-07T02:00:17;7.00;;;6.37;;
50555;SDS011;36508;52.512;13.450;2022-12-07T02:05:20;9.90;;;6.30;;
50555;SDS011;36508;52.512;13.450;2022-12-07T02:07:47;8.40;;;5.90;;
50555;SDS011;36508;52.512;13.450;2022-12-07T02:10:15;7.03;;;6.33;;
50555;SDS011;36508;52.512;13.450;2022-12-07T02:12:43;6.13;;;5.53;;
50555;SDS011;36508;52.512;13.450;2022-12-07T02:15:11;6.53;;;5.90;;
50555;SDS011;36508;52.512;13.450;2022-12-07T02:17:45;5.80;;;5.17;;
50555;SDS011;36508;52.512;13.450;2022-12-07T02:30:43;4.03;;;3.73;;
50555;SDS011;36508;52.512;13.450;2022-12-07T02:33:19;6.10;;;5.20;;
50555;SDS011;36508;52.512;13.450;2022-12-07T02:36:02;6.90;;;5.93;;
50555;SDS011;36508;52.512;13.450;2022-12-07T02:38:58;7.30;;;6.47;;
50555;SDS011;36508;52.512;13.450;2022-12-07T02:41:40;8.40;;;7.63;;
50555;SDS011;36508;52.512;13.450;2022-12-07T02:44:16;8.37;;;7.00;;
50555;SDS011;36508;52.512;13.450;2022-12-07T02:46:47;8.60;;;6.50;;
50555;SDS011;36508;52.512;13.450;2022-12-07T02:49:18;9.20;;;7.47;;
50555;SDS011;36508;52.512;13.450;2022-12-07T02:51:46;7.33;;;6.63;;
50555;SDS011;36508;52.512;13.450;2022-12-07T02:54:13;9.27;;;8.37;;
50555;SDS011;36508;52.512;13.450;2022-12-07T03:13:01;7.77;;;7.03;;
50555;SDS011;36508;52.512;13.450;2022-12-07T03:21:39;7.77;;;7.00;;
50555;SDS011;36508;52.512;13.450;2022-12-07T03:27:11;9.73;;;8.70;;
50555;SDS011;36508;52.512;13.450;2022-12-07T03:32:26;9.00;;;8.20;;
50555;SDS011;36508;52.512;13.450;2022-12-07T03:35:05;8.63;;;7.83;;
50555;SDS011;36508;52.512;13.450;2022-12-07T03:37:52;9.83;;;8.83;;
50555;SDS011;36508;52.512;13.450;2022-12-07T03:40:30;8.77;;;7.97;;
50555;SDS011;36508;52.512;13.450;2022-12-07T03:43:00;8.40;;;7.60;;
50555;SDS011;36508;52.512;13.450;2022-12-07T03:45:31;9.07;;;8.17;;
50555;SDS011;36508;52.512;13.450;2022-12-07T03:48:06;8.90;;;8.00;;
50555;SDS011;36508;52.512;13.450;2022-12-07T03:51:01;7.83;;;7.13;;
50555;SDS011;36508;52.512;13.450;2022-12-07T03:53:34;10.40;;;8.87;;
50555;SDS011;36508;52.512;13.450;2022-12-07T03:56:13;9.27;;;8.37;;
50555;SDS011;36508;52.512;13.450;2022-12-07T03:58:40;7.90;;;7.10;;
50555;SDS011;36508;52.512;13.450;2022-12-07T04:01:06;8.63;;;7.80;;
50555;SDS011;36508;52.512;13.450;2022-12-07T04:03:32;8.63;;;7.83;;
50555;SDS011;36508;52.512;13.450;2022-12-07T04:05:57;8.87;;;7.83;;
50555;SDS011;36508;52.512;13.450;2022-12-07T04:08:24;9.30;;;8.30;;
50555;SDS011;36508;52.512;13.450;2022-12-07T04:10:49;10.63;;;8.97;;
50555;SDS011;36508;52.512;13.450;2022-12-07T04:13:15;10.10;;;8.13;;
50555;SDS011;36508;52.512;13.450;2022-12-07T04:15:41;11.13;;;10.10;;
50555;SDS011;36508;52.512;13.450;2022-12-07T04:18:07;10.37;;;9.27;;
50555;SDS011;36508;52.512;13.450;2022-12-07T04:20:32;8.83;;;8.03;;
50555;SDS011;36508;52.512;13.450;2022-12-07T04:22:58;11.13;;;10.03;;
50555;SDS011;36508;52.512;13.450;2022-12-07T04:28:00;13.50;;;11.43;;
50555;SDS011;36508;52.512;13.450;2022-12-07T04:30:25;12.27;;;11.13;;
50555;SDS011;36508;52.512;13.450;2022-12-07T04:32:51;14.10;;;11.13;;
50555;SDS011;36508;52.512;13.450;2022-12-07T04:35:16;11.70;;;10.47;;
50555;SDS011;36508;52.512;13.450;2022-12-07T04:37:42;13.17;;;10.57;;
50555;SDS011;36508;52.512;13.450;2022-12-07T04:40:08;13.73;;;11.93;;
50555;SDS011;36508;52.512;13.450;2022-12-07T04:42:36;14.03;;;12.67;;
50555;SDS011;36508;52.512;13.450;2022-12-07T04:45:02;13.07;;;11.67;;
50555;SDS011;36508;52.512;13.450;2022-12-07T04:47:27;17.70;;;13.70;;
50555;SDS011;36508;52.512;13.450;2022-12-07T04:49:53;14.07;;;12.60;;
50555;SDS011;36508;52.512;13.450;2022-12-07T04:52:18;17.37;;;14.80;;
50555;SDS011;36508;52.512;13.450;2022-12-07T04:54:44;21.27;;;13.97;;
50555;SDS011;36508;52.512;13.450;2022-12-07T04:57:10;18.63;;;13.60;;
50555;SDS011;36508;52.512;13.450;2022-12-07T04:59:35;17.50;;;14.50;;
50555;SDS011;36508;52.512;13.450;2022-12-07T05:02:01;19.77;;;14.27;;
50555;SDS011;36508;52.512;13.450;2022-12-07T05:04:26;15.53;;;13.20;;
50555;SDS011;36508;52.512;13.450;2022-12-07T05:06:52;18.10;;;13.90;;
50555;SDS011;36508;52.512;13.450;2022-12-07T05:09:17;20.10;;;14.50;;
50555;SDS011;36508;52.512;13.450;2022-12-07T05:11:43;22.23;;;16.17;;
50555;SDS011;36508;52.512;13.450;2022-12-07T05:14:10;20.57;;;15.67;;
50555;SDS011;36508;52.512;13.450;2022-12-07T05:16:36;21.90;;;15.80;;
50555;SDS011;36508;52.512;13.450;2022-12-07T05:19:02;19.20;;;14.43;;
50555;SDS011;36508;52.512;13.450;2022-12-07T05:21:28;28.40;;;17.33;;
50555;SDS011;36508;52.512;13.450;2022-12-07T05:23:54;20.40;;;16.40;;
50555;SDS011;36508;52.512;13.450;2022-12-07T05:26:19;21.43;;;15.23;;
50555;SDS011;36508;52.512;13.450;2022-12-07T05:28:45;25.03;;;18.23;;
50555;SDS011;36508;52.512;13.450;2022-12-07T05:31:15;25.00;;;17.10;;
50555;SDS011;36508;52.512;13.450;2022-12-07T05:33:41;21.27;;;15.90;;
50555;SDS011;36508;52.512;13.450;2022-12-07T05:36:06;23.00;;;17.40;;
50555;SDS011;36508;52.512;13.450;2022-12-07T05:38:32;20.20;;;16.30;;
50555;SDS011;36508;52.512;13.450;2022-12-07T05:41:02;25.83;;;18.63;;
50555;SDS011;36508;52.512;13.450;2022-12-07T05:43:29;23.10;;;16.37;;
50555;SDS011;36508;52.512;13.450;2022-12-07T05:45:55;25.80;;;19.37;;
50555;SDS011;36508;52.512;13.450;2022-12-07T05:48:22;21.33;;;15.70;;
50555;SDS011;36508;52.512;13.450;2022-12-07T05:50:48;20.00;;;15.60;;
50555;SDS011;36508;52.512;13.450;2022-12-07T05:53:14;23.13;;;17.87;;
50555;SDS011;36508;52.512;13.450;2022-12-07T05:55:40;26.30;;;18.90;;
50555;SDS011;36508;52.512;13.450;2022-12-07T05:58:05;19.00;;;16.33;;
50555;SDS011;36508;52.512;13.450;2022-12-07T06:00:49;28.20;;;20.13;;
50555;SDS011;36508;52.512;13.450;2022-12-07T06:03:15;25.00;;;19.27;;
50555;SDS011;36508;52.512;13.450;2022-12-07T06:05:40;28.97;;;18.33;;
50555;SDS011;36508;52.512;13.450;2022-12-07T06:08:06;28.57;;;20.13;;
50555;SDS011;36508;52.512;13.450;2022-12-07T06:10:32;25.53;;;20.37;;
50555;SDS011;36508;52.512;13.450;2022-12-07T06:12:57;26.50;;;19.40;;
50555;SDS011;36508;52.512;13.450;2022-12-07T06:15:23;29.07;;;21.37;;
50555;SDS011;36508;52.512;13.450;2022-12-07T06:17:48;21.60;;;15.73;;
50555;SDS011;36508;52.512;13.450;2022-12-07T06:20:14;22.60;;;18.93;;
50555;SDS011;36508;52.512;13.450;2022-12-07T06:22:40;24.73;;;19.33;;
50555;SDS011;36508;52.512;13.450;2022-12-07T06:25:06;26.63;;;21.13;;
50555;SDS011;36508;52.512;13.450;2022-12-07T06:27:32;27.77;;;20.30;;
50555;SDS011;36508;52.512;13.450;2022-12-07T06:29:58;28.77;;;21.20;;
50555;SDS011;36508;52.512;13.450;2022-12-07T06:32:31;30.43;;;21.70;;
50555;SDS011;36508;52.512;13.450;2022-12-07T06:34:57;28.30;;;20.30;;
50555;SDS011;36508;52.512;13.450;2022-12-07T06:37:23;22.20;;;16.57;;
50555;SDS011;36508;52.512;13.450;2022-12-07T06:39:48;26.80;;;18.83;;
50555;SDS011;36508;52.512;13.450;2022-12-07T06:42:14;27.80;;;18.83;;
50555;SDS011;36508;52.512;13.450;2022-12-07T06:44:39;18.27;;;13.77;;
50555;SDS011;36508;52.512;13.450;2022-12-07T06:47:05;24.03;;;17.80;;
50555;SDS011;36508;52.512;13.450;2022-12-07T06:49:32;24.53;;;18.03;;
50555;SDS011;36508;52.512;13.450;2022-12-07T06:51:58;25.43;;;20.23;;
50555;SDS011;36508;52.512;13.450;2022-12-07T06:54:24;27.73;;;18.97;;
50555;SDS011;36508;52.512;13.450;2022-12-07T06:56:49;22.63;;;15.50;;
50555;SDS011;36508;52.512;13.450;2022-12-07T06:59:15;19.13;;;15.77;;
50555;SDS011;36508;52.512;13.450;2022-12-07T07:01:41;30.63;;;19.23;;
50555;SDS011;36508;52.512;13.450;2022-12-07T07:04:06;24.73;;;20.77;;
50555;SDS011;36508;52.512;13.450;2022-12-07T07:06:32;28.17;;;21.13;;
50555;SDS011;36508;52.512;13.450;2022-12-07T07:08:57;26.10;;;18.73;;
50555;SDS011;36508;52.512;13.450;2022-12-07T07:11:23;25.70;;;15.43;;
50555;SDS011;36508;52.512;13.450;2022-12-07T07:13:49;26.30;;;18.90;;
50555;SDS011;36508;52.512;13.450;2022-12-07T07:16:14;23.57;;;18.57;;
50555;SDS011;36508;52.512;13.450;2022-12-07T07:18:40;27.63;;;19.33;;
50555;SDS011;36508;52.512;13.450;2022-12-07T07:21:06;31.60;;;19.40;;
50555;SDS011;36508;52.512;13.450;2022-12-07T07:23:31;32.03;;;20.40;;
50555;SDS011;36508;52.512;13.450;2022-12-07T07:25:57;25.73;;;20.70;;
50555;SDS011;36508;52.512;13.450;2022-12-07T07:28:23;23.30;;;17.33;;
50555;SDS011;36508;52.512;13.450;2022-12-07T07:30:48;19.73;;;15.60;;
50555;SDS011;36508;52.512;13.450;2022-12-07T07:33:14;28.23;;;21.40;;
50555;SDS011;36508;52.512;13.450;2022-12-07T07:35:44;20.53;;;16.07;;
50555;SDS011;36508;52.512;13.450;2022-12-07T07:38:09;22.33;;;18.13;;
50555;SDS011;36508;52.512;13.450;2022-12-07T07:40:35;22.03;;;16.80;;
50555;SDS011;36508;52.512;13.450;2022-12-07T07:43:01;29.57;;;20.37;;
50555;SDS011;36508;52.512;13.450;2022-12-07T07:45:27;16.57;;;14.50;;
50555;SDS011;36508;52.512;13.450;2022-12-07T07:47:53;17.10;;;13.30;;
50555;SDS011;36508;52.512;13.450;2022-12-07T07:50:18;14.40;;;13.07;;
50555;SDS011;36508;52.512;13.450;2022-12-07T07:52:45;18.03;;;15.27;;
50555;SDS011;36508;52.512;13.450;2022-12-07T07:55:11;21.20;;;14.13;;
50555;SDS011;36508;52.512;13.450;2022-12-07T07:57:37;14.77;;;13.20;;
50555;SDS011;36508;52.512;13.450;2022-12-07T08:00:05;16.00;;;14.47;;
50555;SDS011;36508;52.512;13.450;2022-12-07T08:02:35;19.50;;;13.53;;
50555;SDS011;36508;52.512;13.450;2022-12-07T08:05:01;12.23;;;10.60;;
50555;SDS011;36508;52.512;13.450;2022-12-07T08:07:27;14.90;;;12.67;;
50555;SDS011;36508;52.512;13.450;2022-12-07T08:09:53;13.80;;;9.70;;
50555;SDS011;36508;52.512;13.450;2022-12-07T08:12:18;12.37;;;11.13;;
50555;SDS011;36508;52.512;13.450;2022-12-07T08:14:44;14.10;;;12.60;;
50555;SDS011;36508;52.512;13.450;2022-12-07T08:17:10;11.27;;;10.20;;
50555;SDS011;36508;52.512;13.450;2022-12-07T08:19:35;15.13;;;9.80;;
50555;SDS011;36508;52.512;13.450;2022-12-07T08:22:01;9.30;;;8.40;;
50555;SDS011;36508;52.512;13.450;2022-12-07T08:24:27;10.37;;;8.70;;
50555;SDS011;36508;52.512;13.450;2022-12-07T08:26:53;10.17;;;9.13;;
50555;SDS011;36508;52.512;13.450;2022-12-07T08:29:18;10.43;;;8.90;;
50555;SDS011;36508;52.512;13.450;2022-12-07T08:31:44;10.87;;;9.87;;
50555;SDS011;36508;52.512;13.450;2022-12-07T08:34:10;10.67;;;9.57;;
50555;SDS011;36508;52.512;13.450;2022-12-07T08:36:36;8.30;;;7.50;;
50555;SDS011;36508;52.512;13.450;2022-12-07T08:39:02;7.70;;;7.00;;
50555;SDS011;36508;52.512;13.450;2022-12-07T08:41:28;5.93;;;5.33;;
50555;SDS011;36508;52.512;13.450;2022-12-07T08:44:08;8.13;;;6.70;;
50555;SDS011;36508;52.512;13.450;2022-12-07T08:46:40;4.63;;;4.30;;
50555;SDS011;36508;52.512;13.450;2022-12-07T08:49:17;5.90;;;5.17;;
50555;SDS011;36508;52.512;13.450;2022-12-07T08:51:46;6.63;;;4.93;;
50555;SDS011;36508;52.512;13.450;2022-12-07T08:54:16;4.93;;;4.53;;
50555;SDS011;36508;52.512;13.450;2022-12-07T08:56:43;4.97;;;4.53;;
50555;SDS011;36508;52.512;13.450;2022-12-07T08:59:10;4.17;;;3.87;;
50555;SDS011;36508;52.512;13.450;2022-12-07T09:01:37;6.20;;;4.27;;
50555;SDS011;36508;52.512;13.450;2022-12-07T09:04:02;4.57;;;4.20;;
50555;SDS011;36508;52.512;13.450;2022-12-07T09:06:28;3.70;;;3.40;;
50555;SDS011;36508;52.512;13.450;2022-12-07T09:08:55;5.07;;;3.60;;
50555;SDS011;36508;52.512;13.450;2022-12-07T09:11:23;5.00;;;4.13;;
50555;SDS011;36508;52.512;13.450;2022-12-07T09:13:49;4.13;;;3.20;;
50555;SDS011;36508;52.512;13.450;2022-12-07T09:16:15;3.33;;;3.13;;
50555;SDS011;36508;52.512;13.450;2022-12-07T09:18:40;2.77;;;2.40;;
50555;SDS011;36508;52.512;13.450;2022-12-07T09:21:06;3.13;;;2.93;;
50555;SDS011;36508;52.512;13.450;2022-12-07T09:23:32;5.67;;;5.13;;
50555;SDS011;36508;52.512;13.450;2022-12-07T09:26:01;3.40;;;2.70;;
50555;SDS011;36508;52.512;13.450;2022-12-07T09:28:29;2.80;;;2.30;;
50555;SDS011;36508;52.512;13.450;2022-12-07T09:30:56;1.80;;;1.63;;
50555;SDS011;36508;52.512;13.450;2022-12-07T09:33:21;2.53;;;2.43;;
50555;SDS011;36508;52.512;13.450;2022-12-07T09:35:48;2.43;;;2.33;;
50555;SDS011;36508;52.512;13.450;2022-12-07T09:38:14;2.43;;;2.33;;
50555;SDS011;36508;52.512;13.450;2022-12-07T09:40:40;2.30;;;2.20;;
50555;SDS011;36508;52.512;13.450;2022-12-07T09:43:22;2.43;;;2.23;;
50555;SDS011;36508;52.512;13.450;2022-12-07T09:45:53;2.50;;;2.40;;
50555;SDS011;36508;52.512;13.450;2022-12-07T09:48:21;3.33;;;3.23;;
50555;SDS011;36508;52.512;13.450;2022-12-07T09:50:58;6.40;;;3.00;;
50555;SDS011;36508;52.512;13.450;2022-12-07T09:53:26;2.70;;;2.50;;
50555;SDS011;36508;52.512;13.450;2022-12-07T09:55:58;2.90;;;2.80;;
50555;SDS011;36508;52.512;13.450;2022-12-07T09:58:25;2.13;;;1.93;;
50555;SDS011;36508;52.512;13.450;2022-12-07T10:01:09;2.87;;;2.57;;
50555;SDS011;36508;52.512;13.450;2022-12-07T10:03:39;2.10;;;2.00;;
50555;SDS011;36508;52.512;13.450;2022-12-07T10:06:09;1.37;;;1.30;;
50555;SDS011;36508;52.512;13.450;2022-12-07T10:08:37;2.63;;;2.47;;
50555;SDS011;36508;52.512;13.450;2022-12-07T10:11:03;2.13;;;2.03;;
50555;SDS011;36508;52.512;13.450;2022-12-07T10:13:35;2.60;;;2.50;;
50555;SDS011;36508;52.512;13.450;2022-12-07T10:19:16;2.70;;;2.50;;
50555;SDS011;36508;52.512;13.450;2022-12-07T10:21:42;10.63;;;2.37;;
50555;SDS011;36508;52.512;13.450;2022-12-07T10:24:50;3.77;;;2.40;;
50555;SDS011;36508;52.512;13.450;2022-12-07T10:27:20;2.60;;;2.40;;
50555;SDS011;36508;52.512;13.450;2022-12-07T10:29:56;2.03;;;1.93;;
50555;SDS011;36508;52.512;13.450;2022-12-07T10:32:28;2.90;;;2.70;;
50555;SDS011;36508;52.512;13.450;2022-12-07T10:35:19;11.50;;;2.60;;
50555;SDS011;36508;52.512;13.450;2022-12-07T10:37:46;2.27;;;2.17;;
50555;SDS011;36508;52.512;13.450;2022-12-07T10:45:41;2.90;;;2.30;;
50555;SDS011;36508;52.512;13.450;2022-12-07T10:48:28;2.60;;;2.43;;
50555;SDS011;36508;52.512;13.450;2022-12-07T10:54:01;3.30;;;2.63;;
50555;SDS011;36508;52.512;13.450;2022-12-07T10:56:52;3.07;;;2.87;;
50555;SDS011;36508;52.512;13.450;2022-12-07T11:00:00;3.37;;;3.17;;
50555;SDS011;36508;52.512;13.450;2022-12-07T11:05:40;3.67;;;3.20;;
50555;SDS011;36508;52.512;13.450;2022-12-07T11:11:06;4.80;;;3.37;;
50555;SDS011;36508;52.512;13.450;2022-12-07T11:13:56;4.00;;;3.67;;
50555;SDS011;36508;52.512;13.450;2022-12-07T11:16:45;4.17;;;3.87;;
50555;SDS011;36508;52.512;13.450;2022-12-07T11:22:16;3.70;;;3.33;;
50555;SDS011;36508;52.512;13.450;2022-12-07T11:25:53;5.40;;;4.60;;
50555;SDS011;36508;52.512;13.450;2022-12-07T11:30:42;5.47;;;3.83;;
50555;SDS011;36508;52.512;13.450;2022-12-07T11:38:47;3.40;;;3.20;;
50555;SDS011;36508;52.512;13.450;2022-12-07T11:41:20;5.10;;;4.70;;
50555;SDS011;36508;52.512;13.450;2022-12-07T11:43:50;4.67;;;4.37;;
50555;SDS011;36508;52.512;13.450;2022-12-07T11:46:31;9.27;;;7.10;;
50555;SDS011;36508;52.512;13.450;2022-12-07T11:49:13;4.80;;;4.50;;
50555;SDS011;36508;52.512;13.450;2022-12-07T11:51:40;5.73;;;5.23;;
50555;SDS011;36508;52.512;13.450;2022-12-07T11:54:15;4.53;;;4.27;;
50555;SDS011;36508;52.512;13.450;2022-12-07T11:56:49;8.20;;;5.17;;
50555;SDS011;36508;52.512;13.450;2022-12-07T11:59:24;5.73;;;5.17;;
50555;SDS011;36508;52.512;13.450;2022-12-07T12:02:16;4.40;;;4.10;;
50555;SDS011;36508;52.512;13.450;2022-12-07T12:04:58;5.90;;;5.30;;
50555;SDS011;36508;52.512;13.450;2022-12-07T12:07:37;3.30;;;3.07;;
50555;SDS011;36508;52.512;13.450;2022-12-07T12:10:05;5.80;;;4.80;;
50555;SDS011;36508;52.512;13.450;2022-12-07T12:18:22;3.67;;;3.47;;
50555;SDS011;36508;52.512;13.450;2022-12-07T12:21:10;5.70;;;5.37;;
50555;SDS011;36508;52.512;13.450;2022-12-07T12:23:41;4.63;;;4.23;;
50555;SDS011;36508;52.512;13.450;2022-12-07T12:26:14;4.93;;;3.40;;
50555;SDS011;36508;52.512;13.450;2022-12-07T12:28:58;5.73;;;4.40;;
50555;SDS011;36508;52.512;13.450;2022-12-07T12:31:37;7.40;;;4.43;;
50555;SDS011;36508;52.512;13.450;2022-12-07T12:37:02;6.77;;;2.90;;
50555;SDS011;36508;52.512;13.450;2022-12-07T12:42:48;4.50;;;3.13;;
50555;SDS011;36508;52.512;13.450;2022-12-07T12:45:19;4.30;;;4.00;;
50555;SDS011;36508;52.512;13.450;2022-12-07T12:50:30;4.00;;;3.70;;
50555;SDS011;36508;52.512;13.450;2022-12-07T12:58:36;4.53;;;4.13;;
50555;SDS011;36508;52.512;13.450;2022-12-07T13:04:03;3.60;;;3.30;;
50555;SDS011;36508;52.512;13.450;2022-12-07T13:06:46;3.53;;;3.30;;
50555;SDS011;36508;52.512;13.450;2022-12-07T13:09:22;5.23;;;2.97;;
50555;SDS011;36508;52.512;13.450;2022-12-07T13:12:05;2.80;;;2.20;;
50555;SDS011;36508;52.512;13.450;2022-12-07T13:14:39;2.27;;;2.07;;
50555;SDS011;36508;52.512;13.450;2022-12-07T13:20:06;8.63;;;2.90;;
50555;SDS011;36508;52.512;13.450;2022-12-07T13:28:02;5.60;;;5.10;;
50555;SDS011;36508;52.512;13.450;2022-12-07T13:30:42;3.13;;;2.83;;
50555;SDS011;36508;52.512;13.450;2022-12-07T13:33:18;3.03;;;2.73;;
50555;SDS011;36508;52.512;13.450;2022-12-07T13:35:44;2.47;;;2.13;;
50555;SDS011;36508;52.512;13.450;2022-12-07T13:38:47;5.70;;;3.53;;
50555;SDS011;36508;52.512;13.450;2022-12-07T13:41:13;3.70;;;2.77;;
50555;SDS011;36508;52.512;13.450;2022-12-07T13:43:45;8.40;;;3.57;;
50555;SDS011;36508;52.512;13.450;2022-12-07T13:46:26;5.83;;;3.10;;
50555;SDS011;36508;52.512;13.450;2022-12-07T13:49:18;4.73;;;2.33;;
50555;SDS011;36508;52.512;13.450;2022-12-07T13:51:48;11.90;;;4.83;;
50555;SDS011;36508;52.512;13.450;2022-12-07T13:54:15;2.93;;;2.30;;
50555;SDS011;36508;52.512;13.450;2022-12-07T13:56:41;5.73;;;3.03;;
50555;SDS011;36508;52.512;13.450;2022-12-07T13:59:25;2.80;;;2.60;;
50555;SDS011;36508;52.512;13.450;2022-12-07T14:01:52;6.40;;;3.20;;
50555;SDS011;36508;52.512;13.450;2022-12-07T14:04:30;7.57;;;5.20;;
50555;SDS011;36508;52.512;13.450;2022-12-07T14:06:56;3.30;;;3.00;;
50555;SDS011;36508;52.512;13.450;2022-12-07T14:09:25;2.67;;;2.47;;
50555;SDS011;36508;52.512;13.450;2022-12-07T14:11:53;7.10;;;3.00;;
50555;SDS011;36508;52.512;13.450;2022-12-07T14:14:24;5.13;;;3.03;;
50555;SDS011;36508;52.512;13.450;2022-12-07T14:17:00;2.93;;;2.63;;
50555;SDS011;36508;52.512;13.450;2022-12-07T14:19:39;6.00;;;4.60;;
50555;SDS011;36508;52.512;13.450;2022-12-07T14:22:09;9.27;;;2.53;;
50555;SDS011;36508;52.512;13.450;2022-12-07T14:24:48;4.30;;;3.90;;
50555;SDS011;36508;52.512;13.450;2022-12-07T14:27:22;2.20;;;2.10;;
50555;SDS011;36508;52.512;13.450;2022-12-07T14:29:55;6.63;;;4.80;;
50555;SDS011;36508;52.512;13.450;2022-12-07T14:32:26;2.87;;;2.40;;
50555;SDS011;36508;52.512;13.450;2022-12-07T14:35:08;10.33;;;3.30;;
50555;SDS011;36508;52.512;13.450;2022-12-07T14:37:36;7.83;;;2.90;;
50555;SDS011;36508;52.512;13.450;2022-12-07T14:40:04;3.97;;;2.97;;
50555;SDS011;36508;52.512;13.450;2022-12-07T14:42:31;7.80;;;4.63;;
50555;SDS011;36508;52.512;13.450;2022-12-07T14:44:58;5.30;;;3.30;;
50555;SDS011;36508;52.512;13.450;2022-12-07T14:47:24;9.73;;;3.50;;
50555;SDS011;36508;52.512;13.450;2022-12-07T14:49:51;5.22;;;2.95;;
50555;SDS011;36508;52.512;13.450;2022-12-07T14:52:21;4.60;;;2.13;;
50555;SDS011;36508;52.512;13.450;2022-12-07T14:54:49;3.47;;;2.30;;
50555;SDS011;36508;52.512;13.450;2022-12-07T14:57:16;24.90;;;3.43;;
50555;SDS011;36508;52.512;13.450;2022-12-07T14:59:41;5.00;;;2.90;;
50555;SDS011;36508;52.512;13.450;2022-12-07T15:02:08;5.60;;;2.90;;
50555;SDS011;36508;52.512;13.450;2022-12-07T15:04:38;6.10;;;3.47;;
50555;SDS011;36508;52.512;13.450;2022-12-07T15:07:04;2.77;;;2.57;;
50555;SDS011;36508;52.512;13.450;2022-12-07T15:09:31;13.37;;;3.77;;
50555;SDS011;36508;52.512;13.450;2022-12-07T15:11:57;4.83;;;2.20;;
50555;SDS011;36508;52.512;13.450;2022-12-07T15:14:25;4.57;;;2.37;;
50555;SDS011;36508;52.512;13.450;2022-12-07T15:16:51;6.00;;;2.37;;
50555;SDS011;36508;52.512;13.450;2022-12-07T15:19:21;3.60;;;1.87;;
50555;SDS011;36508;52.512;13.450;2022-12-07T15:21:50;3.70;;;2.40;;
50555;SDS011;36508;52.512;13.450;2022-12-07T15:24:16;4.00;;;2.07;;
50555;SDS011;36508;52.512;13.450;2022-12-07T15:26:42;5.00;;;4.10;;
50555;SDS011;36508;52.512;13.450;2022-12-07T15:29:08;4.17;;;2.60;;
50555;SDS011;36508;52.512;13.450;2022-12-07T15:31:34;8.43;;;3.30;;
50555;SDS011;36508;52.512;13.450;2022-12-07T15:34:01;5.93;;;3.00;;
50555;SDS011;36508;52.512;13.450;2022-12-07T15:36:28;3.70;;;2.20;;
50555;SDS011;36508;52.512;13.450;2022-12-07T15:38:56;3.63;;;3.17;;
50555;SDS011;36508;52.512;13.450;2022-12-07T15:41:22;3.40;;;2.30;;
50555;SDS011;36508;52.512;13.450;2022-12-07T15:43:47;6.10;;;3.70;;
50555;SDS011;36508;52.512;13.450;2022-12-07T15:46:36;8.90;;;3.30;;
50555;SDS011;36508;52.512;13.450;2022-12-07T15:49:04;3.97;;;2.37;;
50555;SDS011;36508;52.512;13.450;2022-12-07T15:51:33;6.00;;;2.80;;
50555;SDS011;36508;52.512;13.450;2022-12-07T15:53:58;6.37;;;3.07;;
50555;SDS011;36508;52.512;13.450;2022-12-07T15:56:24;8.90;;;4.60;;
50555;SDS011;36508;52.512;13.450;2022-12-07T15:58:50;3.23;;;2.93;;
50555;SDS011;36508;52.512;13.450;2022-12-07T16:01:16;4.77;;;2.70;;
50555;SDS011;36508;52.512;13.450;2022-12-07T16:03:43;2.00;;;1.80;;
50555;SDS011;36508;52.512;13.450;2022-12-07T16:06:10;9.10;;;3.60;;
50555;SDS011;36508;52.512;13.450;2022-12-07T16:08:35;5.63;;;3.07;;
50555;SDS011;36508;52.512;13.450;2022-12-07T16:11:04;3.43;;;2.40;;
50555;SDS011;36508;52.512;13.450;2022-12-07T16:13:31;3.43;;;2.27;;
50555;SDS011;36508;52.512;13.450;2022-12-07T16:15:57;13.27;;;3.90;;
50555;SDS011;36508;52.512;13.450;2022-12-07T16:18:23;4.80;;;2.57;;
50555;SDS011;36508;52.512;13.450;2022-12-07T16:20:49;8.63;;;2.57;;
50555;SDS011;36508;52.512;13.450;2022-12-07T16:23:15;1.83;;;1.60;;
50555;SDS011;36508;52.512;13.450;2022-12-07T16:25:41;4.20;;;2.80;;
50555;SDS011;36508;52.512;13.450;2022-12-07T16:28:06;4.00;;;3.63;;